createdAt,value
2023-05-22T00:01:52.364Z,12.08
2023-05-22T00:04:22.253Z,12.04
2023-05-22T00:06:50.316Z,12.00
2023-05-22T00:09:17.938Z,11.98
2023-05-22T00:11:45.919Z,11.92
2023-05-22T00:14:16.570Z,11.86
2023-05-22T00:16:44.489Z,11.85
2023-05-22T00:19:17.088Z,11.86
2023-05-22T00:21:45.873Z,11.73
2023-05-22T00:24:23.457Z,11.64
2023-05-22T00:26:53.621Z,11.68
2023-05-22T00:29:20.838Z,11.57
2023-05-22T00:31:48.456Z,11.55
2023-05-22T00:34:19.449Z,11.42
2023-05-22T00:36:47.000Z,11.40
2023-05-22T00:39:14.701Z,11.34
2023-05-22T00:41:41.971Z,11.40
2023-05-22T00:44:12.434Z,11.32
2023-05-22T00:46:43.995Z,11.28
2023-05-22T00:49:16.973Z,11.33
2023-05-22T00:51:44.904Z,11.28
2023-05-22T00:54:14.469Z,11.23
2023-05-22T00:56:42.468Z,11.19
2023-05-22T00:59:09.476Z,11.14
2023-05-22T01:01:42.326Z,11.10
2023-05-22T01:04:13.690Z,10.89
2023-05-22T01:06:42.016Z,10.94
2023-05-22T01:09:09.705Z,10.84
2023-05-22T01:11:49.247Z,10.89
2023-05-22T01:14:30.238Z,10.85
2023-05-22T01:17:06.909Z,10.76
2023-05-22T01:20:02.606Z,10.78
2023-05-22T01:22:58.848Z,10.81
2023-05-22T01:25:35.648Z,10.74
2023-05-22T01:28:17.950Z,10.75
2023-05-22T01:30:51.252Z,10.64
2023-05-22T01:33:20.917Z,10.63
2023-05-22T01:35:56.383Z,10.74
2023-05-22T01:38:25.247Z,10.69
2023-05-22T01:41:03.271Z,10.66
2023-05-22T01:43:31.944Z,10.71
2023-05-22T01:46:00.194Z,10.71
2023-05-22T01:48:28.393Z,10.66
2023-05-22T01:50:57.918Z,10.59
2023-05-22T01:53:37.046Z,10.63
2023-05-22T01:56:17.254Z,10.58
2023-05-22T01:58:57.427Z,10.55
2023-05-22T02:01:28.567Z,10.54
2023-05-22T02:03:59.497Z,10.60
2023-05-22T02:06:35.540Z,10.62
2023-05-22T02:09:03.914Z,10.49
2023-05-22T02:11:34.443Z,10.48
2023-05-22T02:14:02.630Z,10.51
2023-05-22T02:16:30.691Z,10.48
2023-05-22T02:19:06.718Z,10.48
2023-05-22T02:21:35.846Z,10.38
2023-05-22T02:24:03.896Z,10.35
2023-05-22T02:26:34.741Z,10.38
2023-05-22T02:29:04.660Z,10.32
2023-05-22T02:31:31.577Z,10.34
2023-05-22T02:33:58.696Z,10.28
2023-05-22T02:36:26.420Z,10.30
2023-05-22T02:38:54.858Z,10.26
2023-05-22T02:41:22.321Z,10.27
2023-05-22T02:43:49.094Z,10.25
2023-05-22T02:46:24.083Z,10.22
2023-05-22T02:48:51.046Z,10.23
2023-05-22T02:51:17.972Z,10.18
2023-05-22T02:53:46.231Z,10.24
2023-05-22T02:56:13.250Z,10.22
2023-05-22T02:58:40.325Z,10.19
2023-05-22T03:01:07.398Z,10.13
2023-05-22T03:03:34.353Z,10.14
2023-05-22T03:06:01.906Z,10.14
2023-05-22T03:08:29.172Z,10.11
2023-05-22T03:11:02.306Z,10.08
2023-05-22T03:13:29.249Z,10.09
2023-05-22T03:15:56.516Z,10.11
2023-05-22T03:18:25.912Z,10.06
2023-05-22T03:20:54.368Z,10.06
2023-05-22T03:23:21.388Z,10.11
2023-05-22T03:25:48.272Z,10.08
2023-05-22T03:28:16.262Z,10.10
2023-05-22T03:30:43.132Z,10.10
2023-05-22T03:33:11.915Z,10.08
2023-05-22T03:35:38.807Z,10.11
2023-05-22T03:38:06.005Z,10.21
2023-05-22T03:40:32.964Z,10.20
2023-05-22T03:43:00.221Z,10.25
2023-05-22T03:45:27.505Z,10.30
2023-05-22T03:47:54.412Z,10.32
2023-05-22T03:50:21.854Z,10.44
2023-05-22T03:52:48.735Z,10.50
2023-05-22T03:55:16.479Z,10.51
2023-05-22T03:57:43.346Z,10.53
2023-05-22T04:00:12.029Z,10.57
2023-05-22T04:02:45.275Z,10.58
2023-05-22T04:05:12.696Z,10.61
2023-05-22T04:07:39.775Z,10.71
2023-05-22T04:10:07.577Z,10.80
2023-05-22T04:12:34.798Z,10.88
2023-05-22T04:15:01.690Z,10.95
2023-05-22T04:17:35.833Z,11.05
2023-05-22T04:20:02.687Z,11.17
2023-05-22T04:22:31.068Z,11.24
2023-05-22T04:24:58.362Z,11.30
2023-05-22T04:27:30.369Z,11.36
2023-05-22T04:30:00.272Z,11.42
2023-05-22T04:32:27.677Z,11.54
2023-05-22T04:34:54.595Z,11.69
2023-05-22T04:37:21.654Z,11.86
2023-05-22T04:39:48.536Z,12.08
2023-05-22T04:42:16.189Z,12.18
2023-05-22T04:44:44.002Z,12.25
2023-05-22T04:47:14.633Z,12.34
2023-05-22T04:49:42.661Z,12.61
2023-05-22T04:52:12.696Z,12.81
2023-05-22T04:54:40.014Z,13.02
2023-05-22T04:57:07.005Z,13.16
2023-05-22T04:59:40.094Z,13.29
2023-05-22T05:02:07.746Z,13.41
2023-05-22T05:04:34.859Z,13.53
2023-05-22T05:07:02.762Z,13.67
2023-05-22T05:09:40.286Z,13.84
2023-05-22T05:12:07.254Z,13.85
2023-05-22T05:14:34.008Z,13.86
2023-05-22T05:20:15.224Z,14.35
2023-05-22T05:22:44.135Z,14.57
2023-05-22T05:25:12.710Z,14.86
2023-05-22T05:27:40.196Z,15.24
2023-05-22T05:30:08.855Z,15.49
2023-05-22T05:32:36.129Z,15.81
2023-05-22T05:35:12.448Z,16.04
2023-05-22T05:37:39.279Z,16.26
2023-05-22T05:40:12.589Z,16.47
2023-05-22T05:42:42.679Z,16.78
2023-05-22T05:45:11.696Z,16.99
2023-05-22T05:47:51.647Z,17.32
2023-05-22T05:50:21.196Z,17.77
2023-05-22T05:52:49.162Z,18.05
2023-05-22T05:55:16.357Z,18.46
2023-05-22T05:57:43.511Z,18.72
2023-05-22T06:00:13.964Z,19.06
2023-05-22T06:02:42.275Z,19.51
2023-05-22T06:05:10.409Z,19.78
2023-05-22T06:07:38.304Z,20.00
2023-05-22T06:10:13.100Z,20.19
2023-05-22T06:12:43.372Z,20.52
2023-05-22T06:15:13.586Z,20.84
2023-05-22T06:17:41.462Z,21.34
2023-05-22T06:20:22.170Z,21.67
2023-05-22T06:22:49.020Z,21.69
2023-05-22T06:25:15.882Z,21.86
2023-05-22T06:27:42.913Z,21.95
2023-05-22T06:30:16.898Z,22.12
2023-05-22T06:32:49.551Z,22.09
2023-05-22T06:35:20.032Z,22.03
2023-05-22T06:37:47.023Z,21.77
2023-05-22T06:40:14.355Z,21.73
2023-05-22T06:42:41.514Z,21.86
2023-05-22T06:45:11.857Z,22.08
2023-05-22T06:47:49.321Z,22.36
2023-05-22T06:50:26.784Z,22.30
2023-05-22T06:53:16.620Z,22.13
2023-05-22T06:55:43.908Z,22.28
2023-05-22T06:58:11.003Z,22.46
2023-05-22T07:00:38.580Z,22.38
2023-05-22T07:03:07.027Z,22.69
2023-05-22T07:05:34.378Z,22.97
2023-05-22T07:08:01.947Z,22.79
2023-05-22T07:10:31.875Z,22.51
2023-05-22T07:13:04.307Z,22.38
2023-05-22T07:15:31.558Z,22.54
2023-05-22T07:17:59.091Z,22.27
2023-05-22T07:20:29.149Z,22.36
2023-05-22T07:23:05.906Z,22.36
2023-05-22T07:25:32.734Z,22.58
2023-05-22T07:28:02.481Z,22.71
2023-05-22T07:30:32.630Z,22.75
2023-05-22T07:33:03.121Z,23.19
2023-05-22T07:35:33.026Z,23.65
2023-05-22T07:38:00.070Z,24.10
2023-05-22T07:40:27.306Z,24.18
2023-05-22T07:43:04.984Z,24.37
2023-05-22T07:45:31.888Z,24.84
2023-05-22T07:48:01.177Z,25.14
2023-05-22T07:50:30.685Z,25.21
2023-05-22T07:52:57.753Z,25.15
2023-05-22T07:55:24.681Z,24.89
2023-05-22T07:57:56.391Z,24.66
2023-05-22T08:00:23.870Z,24.44
2023-05-22T08:02:50.788Z,24.34
2023-05-22T08:05:17.764Z,24.25
2023-05-22T08:07:54.629Z,24.18
2023-05-22T08:10:22.228Z,24.03
2023-05-22T08:12:52.215Z,24.08
2023-05-22T08:15:19.633Z,24.07
2023-05-22T08:18:00.491Z,24.16
2023-05-22T08:20:29.845Z,24.48
2023-05-22T08:22:59.630Z,24.69
2023-05-22T08:25:26.866Z,24.85
2023-05-22T08:27:53.970Z,25.03
2023-05-22T08:30:22.678Z,24.96
2023-05-22T08:32:52.723Z,24.67
2023-05-22T08:35:22.831Z,24.83
2023-05-22T08:37:50.364Z,24.84
2023-05-22T08:40:20.277Z,24.63
2023-05-22T08:42:54.624Z,24.25
2023-05-22T08:45:21.609Z,24.09
2023-05-22T08:47:53.982Z,24.18
2023-05-22T08:50:22.711Z,24.51
2023-05-22T08:52:57.360Z,24.93
2023-05-22T08:55:25.051Z,25.11
2023-05-22T08:57:54.211Z,25.34
2023-05-22T09:00:22.311Z,25.64
2023-05-22T09:02:52.958Z,26.07
2023-05-22T09:05:19.988Z,25.91
2023-05-22T09:07:49.225Z,25.79
2023-05-22T09:10:16.390Z,25.61
2023-05-22T09:16:13.182Z,25.29
2023-05-22T09:18:54.229Z,24.97
2023-05-22T09:24:00.241Z,24.48
2023-05-22T09:26:29.576Z,24.47
2023-05-22T09:29:01.381Z,24.45
2023-05-22T09:31:31.938Z,24.44
2023-05-22T09:34:00.936Z,24.41
2023-05-22T09:36:42.027Z,24.54
2023-05-22T09:39:10.261Z,24.57
2023-05-22T09:44:34.234Z,25.09
2023-05-22T09:47:01.277Z,25.29
2023-05-22T09:49:29.436Z,25.38
2023-05-22T09:52:00.029Z,25.41
2023-05-22T09:54:35.337Z,25.06
2023-05-22T09:57:07.595Z,25.11
2023-05-22T09:59:40.361Z,25.14
2023-05-22T10:02:10.301Z,25.42
2023-05-22T10:04:41.013Z,25.55
2023-05-22T10:07:11.732Z,25.52
2023-05-22T10:09:41.021Z,25.42
2023-05-22T10:12:10.642Z,25.38
2023-05-22T10:14:38.472Z,25.09
2023-05-22T10:17:12.561Z,24.70
2023-05-22T10:19:49.788Z,24.53
2023-05-22T10:22:21.806Z,24.12
2023-05-22T10:24:50.686Z,24.30
2023-05-22T10:27:21.729Z,24.54
2023-05-22T10:30:01.046Z,24.58
2023-05-22T10:32:36.265Z,24.64
2023-05-22T10:35:21.252Z,24.67
2023-05-22T10:37:55.330Z,24.47
2023-05-22T10:40:34.576Z,24.39
2023-05-22T10:43:04.724Z,24.25
2023-05-22T10:45:34.495Z,24.10
2023-05-22T10:48:10.048Z,23.97
2023-05-22T10:50:37.261Z,23.93
2023-05-22T10:53:31.846Z,23.97
2023-05-22T10:56:16.921Z,24.20
2023-05-22T10:59:00.509Z,24.35
2023-05-22T11:01:27.788Z,24.25
2023-05-22T11:03:55.239Z,23.93
2023-05-22T11:06:31.669Z,23.69
2023-05-22T11:08:59.400Z,23.59
2023-05-22T11:11:27.673Z,23.56
2023-05-22T11:14:03.626Z,23.60
2023-05-22T11:16:37.826Z,23.42
2023-05-22T11:19:22.592Z,23.23
2023-05-22T11:21:52.093Z,23.11
2023-05-22T11:24:20.071Z,22.97
2023-05-22T11:27:03.409Z,22.74
2023-05-22T11:29:39.044Z,22.69
2023-05-22T11:32:23.827Z,22.61
2023-05-22T11:35:01.853Z,22.53
2023-05-22T11:37:33.418Z,22.41
2023-05-22T11:40:15.901Z,22.08
2023-05-22T11:42:43.797Z,22.05
2023-05-22T11:45:22.056Z,21.98
2023-05-22T11:47:50.681Z,21.83
2023-05-22T11:50:40.263Z,21.89
2023-05-22T11:53:09.105Z,22.20
2023-05-22T11:55:36.956Z,22.46
2023-05-22T11:58:07.191Z,22.68
2023-05-22T12:00:34.061Z,22.78
2023-05-22T12:03:01.841Z,23.09
2023-05-22T12:05:32.445Z,23.47
2023-05-22T12:08:00.198Z,23.87
2023-05-22T12:10:27.846Z,24.04
2023-05-22T12:12:55.666Z,24.03
2023-05-22T12:15:25.263Z,24.24
2023-05-22T12:17:55.924Z,24.56
2023-05-22T12:20:31.310Z,24.70
2023-05-22T12:23:07.574Z,24.72
2023-05-22T12:25:40.121Z,24.88
2023-05-22T12:28:07.740Z,24.99
2023-05-22T12:30:56.598Z,25.11
2023-05-22T12:33:33.580Z,25.23
2023-05-22T12:36:01.382Z,25.29
2023-05-22T12:38:34.049Z,25.52
2023-05-22T12:41:03.021Z,25.67
2023-05-22T12:43:39.506Z,25.98
2023-05-22T12:46:06.652Z,26.23
2023-05-22T12:48:42.887Z,26.60
2023-05-22T12:51:09.875Z,26.48
2023-05-22T12:53:36.935Z,26.19
2023-05-22T12:56:04.517Z,25.67
2023-05-22T12:58:34.669Z,24.99
2023-05-22T13:01:04.155Z,24.63
2023-05-22T13:03:31.605Z,24.38
2023-05-22T13:05:58.452Z,23.93
2023-05-22T13:08:25.708Z,23.97
2023-05-22T13:10:52.776Z,24.09
2023-05-22T13:13:19.715Z,23.94
2023-05-22T13:15:46.798Z,23.85
2023-05-22T13:18:16.863Z,23.82
2023-05-22T13:20:43.905Z,24.12
2023-05-22T13:23:10.868Z,24.28
2023-05-22T13:25:38.183Z,24.35
2023-05-22T13:28:05.089Z,24.35
2023-05-22T13:30:32.649Z,24.38
2023-05-22T13:32:59.652Z,24.16
2023-05-22T13:35:27.026Z,23.98
2023-05-22T13:37:54.244Z,23.68
2023-05-22T13:40:21.455Z,23.54
2023-05-22T13:42:48.320Z,23.35
2023-05-22T13:45:18.549Z,22.68
2023-05-22T13:47:45.643Z,21.91
2023-05-22T13:50:12.629Z,20.64
2023-05-22T13:52:39.469Z,19.91
2023-05-22T13:55:07.122Z,19.15
2023-05-22T13:57:48.956Z,18.39
2023-05-22T14:00:16.596Z,17.88
2023-05-22T14:02:47.851Z,17.69
2023-05-22T14:05:15.822Z,17.27
2023-05-22T14:07:43.590Z,17.07
2023-05-22T14:10:10.753Z,16.94
2023-05-22T14:12:38.800Z,16.79
2023-05-22T14:15:06.870Z,16.68
2023-05-22T14:17:37.950Z,16.73
2023-05-22T14:20:05.823Z,16.72
2023-05-22T14:22:38.553Z,16.62
2023-05-22T14:25:12.391Z,16.53
2023-05-22T14:27:40.086Z,16.58
2023-05-22T14:30:11.175Z,16.52
2023-05-22T14:32:41.220Z,16.42
2023-05-22T14:35:08.664Z,16.37
2023-05-22T14:37:37.418Z,16.28
2023-05-22T14:40:05.220Z,16.15
2023-05-22T14:42:32.682Z,16.10
2023-05-22T14:44:59.971Z,16.01
2023-05-22T14:47:27.547Z,15.84
2023-05-22T14:49:57.612Z,15.82
2023-05-22T14:52:30.232Z,15.72
2023-05-22T14:54:58.344Z,15.67
2023-05-22T14:57:25.548Z,15.67
2023-05-22T14:59:55.000Z,15.62
2023-05-22T15:02:24.840Z,15.60
2023-05-22T15:04:52.154Z,15.55
2023-05-22T15:07:19.797Z,15.51
2023-05-22T15:09:48.400Z,15.51
2023-05-22T15:12:18.973Z,15.51
2023-05-22T15:14:47.050Z,15.45
2023-05-22T15:17:14.778Z,15.53
2023-05-22T15:19:44.071Z,15.43
2023-05-22T15:22:19.348Z,15.27
2023-05-22T15:25:04.856Z,15.20
2023-05-22T15:27:33.370Z,15.18
2023-05-22T15:30:00.206Z,15.18
2023-05-22T15:32:27.373Z,15.22
2023-05-22T15:34:54.269Z,15.17
2023-05-22T15:37:21.376Z,15.16
2023-05-22T15:39:48.249Z,15.19
2023-05-22T15:42:15.380Z,15.23
2023-05-22T15:44:42.269Z,15.35
2023-05-22T15:47:09.018Z,15.39
2023-05-22T15:49:36.108Z,15.49
2023-05-22T15:52:03.245Z,15.55
2023-05-22T15:54:30.035Z,15.52
2023-05-22T15:56:57.026Z,15.54
2023-05-22T15:59:24.054Z,15.57
2023-05-22T16:01:51.247Z,15.65
2023-05-22T16:04:18.175Z,15.70
2023-05-22T16:06:45.177Z,15.73
2023-05-22T16:09:12.662Z,15.74
2023-05-22T16:11:39.597Z,15.79
2023-05-22T16:14:06.828Z,15.78
2023-05-22T16:16:33.945Z,15.74
2023-05-22T16:19:00.942Z,15.74
2023-05-22T16:21:27.992Z,15.82
2023-05-22T16:23:54.931Z,15.94
2023-05-22T16:26:22.988Z,15.93
2023-05-22T16:28:50.848Z,15.80
2023-05-22T16:31:20.045Z,15.83
2023-05-22T16:33:47.056Z,15.76
2023-05-22T16:36:13.909Z,15.74
2023-05-22T16:38:41.435Z,15.64
2023-05-22T16:41:08.435Z,15.56
2023-05-22T16:43:37.069Z,15.54
2023-05-22T16:46:04.310Z,15.43
2023-05-22T16:48:31.059Z,15.37
2023-05-22T16:50:58.011Z,15.33
2023-05-22T16:53:25.432Z,15.34
2023-05-22T16:55:52.362Z,15.33
2023-05-22T16:58:19.247Z,15.35
2023-05-22T17:00:47.106Z,15.37
2023-05-22T17:03:17.444Z,15.38
2023-05-22T17:05:44.462Z,15.31
2023-05-22T17:08:11.746Z,15.32
2023-05-22T17:10:38.728Z,15.39
2023-05-22T17:13:05.791Z,15.37
2023-05-22T17:15:32.856Z,15.39
2023-05-22T17:17:59.838Z,15.23
2023-05-22T17:20:28.840Z,15.09
2023-05-22T17:22:55.954Z,15.03
2023-05-22T17:25:23.208Z,15.04
2023-05-22T17:27:50.115Z,15.08
2023-05-22T17:30:17.555Z,14.97
2023-05-22T17:32:45.376Z,14.97
2023-05-22T17:35:12.115Z,15.02
2023-05-22T17:37:39.092Z,14.94
2023-05-22T17:40:06.957Z,14.88
2023-05-22T17:42:36.429Z,14.86
2023-05-22T17:45:05.757Z,14.86
2023-05-22T17:47:32.642Z,14.87
2023-05-22T17:49:59.481Z,14.80
2023-05-22T17:52:26.994Z,14.82
2023-05-22T17:54:56.007Z,14.84
2023-05-22T17:57:26.434Z,14.84
2023-05-22T17:59:57.182Z,14.76
2023-05-22T18:02:24.692Z,14.68
2023-05-22T18:04:51.919Z,14.65
2023-05-22T18:07:29.165Z,14.62
2023-05-22T18:09:56.935Z,14.60
2023-05-22T18:12:31.784Z,14.61
2023-05-22T18:15:00.781Z,14.58
2023-05-22T18:17:28.094Z,14.62
2023-05-22T18:19:55.363Z,14.58
2023-05-22T18:22:31.535Z,14.60
2023-05-22T18:24:59.277Z,14.54
2023-05-22T18:27:29.717Z,14.53
2023-05-22T18:29:58.075Z,14.43
2023-05-22T18:32:25.562Z,14.38
2023-05-22T18:34:56.055Z,14.36
2023-05-22T18:37:30.219Z,14.23
2023-05-22T18:39:57.772Z,14.08
2023-05-22T18:42:25.360Z,14.03
2023-05-22T18:44:55.868Z,14.01
2023-05-22T18:47:23.030Z,13.92
2023-05-22T18:49:50.364Z,13.93
2023-05-22T18:52:24.058Z,13.97
2023-05-22T18:54:51.605Z,13.85
2023-05-22T18:57:21.954Z,13.72
2023-05-22T18:59:50.125Z,13.65
2023-05-22T19:02:21.528Z,13.61
2023-05-22T19:04:49.508Z,13.53
2023-05-22T19:07:16.975Z,13.52
2023-05-22T19:09:44.329Z,13.56
2023-05-22T19:12:11.645Z,13.52
2023-05-22T19:14:38.985Z,13.46
2023-05-22T19:17:06.758Z,13.41
2023-05-22T19:19:34.251Z,13.43
2023-05-22T19:22:01.489Z,13.32
2023-05-22T19:24:28.576Z,13.30
2023-05-22T19:27:06.337Z,13.22
2023-05-22T19:29:33.599Z,13.15
2023-05-22T19:32:04.240Z,13.03
2023-05-22T19:34:31.857Z,12.94
2023-05-22T19:36:58.890Z,12.85
2023-05-22T19:39:26.115Z,12.82
2023-05-22T19:42:04.536Z,12.87
2023-05-22T19:44:32.284Z,12.86
2023-05-22T19:47:03.741Z,12.79
2023-05-22T19:49:32.250Z,12.87
2023-05-22T19:52:00.638Z,12.78
2023-05-22T19:54:28.908Z,12.73
2023-05-22T19:56:56.597Z,12.82
2023-05-22T19:59:24.021Z,12.68
2023-05-22T20:01:54.733Z,12.62
2023-05-22T20:04:22.901Z,12.64
2023-05-22T20:06:51.669Z,12.65
2023-05-22T20:09:19.612Z,12.60
2023-05-22T20:11:51.720Z,12.53
2023-05-22T20:14:20.455Z,12.40
2023-05-22T20:16:50.690Z,12.44
2023-05-22T20:19:18.520Z,12.40
2023-05-22T20:21:49.762Z,12.38
2023-05-22T20:24:22.786Z,12.22
2023-05-22T20:26:50.360Z,12.13
2023-05-22T20:29:18.531Z,12.21
2023-05-22T20:31:46.545Z,12.15
2023-05-22T20:34:23.035Z,12.01
2023-05-22T20:36:53.757Z,11.97
2023-05-22T20:39:25.280Z,11.96
2023-05-22T20:41:59.349Z,11.89
2023-05-22T20:44:27.553Z,11.89
2023-05-22T20:47:04.889Z,11.86
2023-05-22T20:49:35.436Z,11.86
2023-05-22T20:52:06.308Z,11.78
2023-05-22T20:54:38.504Z,11.72
2023-05-22T20:57:25.598Z,11.74
2023-05-22T20:59:59.011Z,11.66
2023-05-22T21:02:38.302Z,11.64
2023-05-22T21:05:06.841Z,11.63
2023-05-22T21:07:47.012Z,11.54
2023-05-22T21:10:18.166Z,11.53
2023-05-22T21:12:49.117Z,11.47
2023-05-22T21:15:24.585Z,11.39
2023-05-22T21:17:52.002Z,11.33
2023-05-22T21:20:20.016Z,11.35
2023-05-22T21:23:32.727Z,11.28
2023-05-22T21:25:54.191Z,11.20
2023-05-22T21:28:24.583Z,11.21
2023-05-22T21:30:52.694Z,11.18
2023-05-22T21:33:20.908Z,11.15
2023-05-22T21:36:21.935Z,11.11
2023-05-22T21:38:40.080Z,11.05
2023-05-22T21:41:07.921Z,11.06
2023-05-22T21:43:44.475Z,11.02
2023-05-22T21:46:12.771Z,10.97
2023-05-22T21:48:40.885Z,10.94
2023-05-22T21:51:10.035Z,10.94
2023-05-22T21:53:37.641Z,10.84
2023-05-22T21:56:05.634Z,10.81
2023-05-22T21:58:33.153Z,10.83
2023-05-22T22:01:00.798Z,10.77
2023-05-22T22:03:29.409Z,10.76
2023-05-22T22:06:00.515Z,10.72
2023-05-22T22:08:37.563Z,10.75
2023-05-22T22:11:12.806Z,10.80
2023-05-22T22:13:40.122Z,10.69
2023-05-22T22:16:07.693Z,10.65
2023-05-22T22:18:34.867Z,10.60
2023-05-22T22:21:02.591Z,10.60
2023-05-22T22:23:38.921Z,10.69
2023-05-22T22:26:09.802Z,10.62
2023-05-22T22:28:40.023Z,10.55
2023-05-22T22:31:07.681Z,10.52
2023-05-22T22:33:38.298Z,10.53
2023-05-22T22:36:05.807Z,10.50
2023-05-22T22:38:35.680Z,10.50
2023-05-22T22:41:05.026Z,10.52
2023-05-22T22:43:36.481Z,10.51
2023-05-22T22:46:09.902Z,10.51
2023-05-22T22:48:42.576Z,10.49
2023-05-22T22:51:10.026Z,10.46
2023-05-22T22:53:37.731Z,10.49
2023-05-22T22:56:07.721Z,10.45
2023-05-22T22:58:35.111Z,10.29
2023-05-22T23:01:05.709Z,10.25
2023-05-22T23:03:40.498Z,10.30
2023-05-22T23:06:07.800Z,10.21
2023-05-22T23:08:35.794Z,10.28
2023-05-22T23:11:03.028Z,10.15
2023-05-22T23:13:32.937Z,10.09
2023-05-22T23:16:00.363Z,10.17
2023-05-22T23:18:27.496Z,10.07
2023-05-22T23:20:54.502Z,9.97
2023-05-22T23:23:21.597Z,9.98
2023-05-22T23:25:48.854Z,10.03
2023-05-22T23:28:18.665Z,9.95
2023-05-22T23:30:45.924Z,9.94
2023-05-22T23:33:12.857Z,9.90
2023-05-22T23:35:40.256Z,9.92
2023-05-22T23:38:07.408Z,9.91
2023-05-22T23:40:34.406Z,9.77
2023-05-22T23:43:01.762Z,9.90
2023-05-22T23:45:28.625Z,9.88
2023-05-22T23:47:55.750Z,9.78
2023-05-22T23:50:22.828Z,9.79
2023-05-22T23:52:49.707Z,9.70
2023-05-22T23:55:17.237Z,9.65
2023-05-22T23:57:44.584Z,9.78
